Avon, Maine
Current Conditions -  °F | °C
As of 3:55 AM on Friday 24 Oct 2014 (Local Time) from KWVL Reporting Station
Overcast Overcast  
Wind Chill: 40°   Ceiling: 1300
Heat Index: 46°   Visibility: 10mi
Dew Point: 41°   Wind: 16mph
Humidity: 81%   Direction: 10°N
Pressure: 29.67"   Gusts: 21mph
Location:  44.8921°N, 70.379°W
Report Text: KWVL 240755Z 01014G18KT 10SM OVC013 08/05 A2967 RMK AO1
Loading
Personal Weather Stations






























Interactive Weather Map New forecast layout! Learn more

10-Day Weather Forecast

Advertisements
Track Severe Weather on mobile